Time;durP1;ratioP1;P1;durP2;ratioP2;P2;SDS_P1;SDS_P2;PMS_P1;PMS_P2;Temp;Humidity;BMP_temperature;BMP_pressure;BME280_temperature;BME280_humidity;BME280_pressure;Samples;Min_cycle;Max_cycle;Signal;HPM_P1;HPM_P2
2021/07/21 00:01:53;;;;;;;5.70;4.47;;;;;;;18.75;54.26;100679.16;10243508;28;20043;-60
2021/07/21 00:06:55;;;;;;;7.13;4.00;;;;;;;18.82;54.14;100701.75;10249737;28;20692;-61
2021/07/21 00:17:24;;;;;;;7.78;4.72;;;;;;;18.76;54.40;100691.66;10248942;28;20051;-61
2021/07/21 00:22:25;;;;;;;4.10;3.28;;;;;;;18.71;54.42;100694.84;10255373;28;20542;-60
2021/07/21 00:27:27;;;;;;;4.85;4.15;;;;;;;18.68;54.38;100692.47;10251322;28;20062;-64
2021/07/21 00:32:28;;;;;;;5.95;3.90;;;;;;;18.59;54.71;100685.41;10253108;28;20051;-59
2021/07/21 00:37:30;;;;;;;6.57;4.05;;;;;;;18.59;54.43;100683.53;10259647;28;20055;-60
2021/07/21 00:42:32;;;;;;;7.57;3.97;;;;;;;18.53;54.58;100687.72;10256938;28;20059;-62
2021/07/21 00:47:34;;;;;;;7.10;3.45;;;;;;;18.50;54.42;100685.34;10255914;28;20046;-59
2021/07/21 00:52:38;;;;;;;5.68;3.78;;;;;;;18.46;54.45;100685.84;10252212;28;20057;-61
2021/07/21 00:57:40;;;;;;;;;;;;;;;18.46;54.44;100692.06;10250583;28;20054;-62
2021/07/21 01:02:44;;;;;;;6.18;3.45;;;;;;;18.40;54.57;100686.50;10255983;28;19929;-60
2021/07/21 01:07:48;;;;;;;4.60;4.03;;;;;;;18.33;54.84;100692.56;10260549;28;20058;-60
2021/07/21 01:13:06;;;;;;;;;;;;;;;18.28;54.78;100686.81;10254561;28;20043;-59
2021/07/21 01:18:12;;;;;;;4.65;4.00;;;;;;;18.23;54.95;100702.63;10257575;28;19929;-62
2021/07/21 01:23:59;;;;;;;5.53;3.70;;;;;;;18.17;55.04;100695.19;10260067;28;20039;-61
2021/07/21 01:29:02;;;;;;;5.28;3.85;;;;;;;18.12;54.95;100678.66;10257397;28;20043;-60
2021/07/21 01:34:06;;;;;;;5.05;3.60;;;;;;;18.02;55.06;100681.50;10257172;28;20055;-60
2021/07/21 01:39:11;;;;;;;5.57;3.55;;;;;;;17.99;55.34;100685.34;10258072;28;20050;-62
2021/07/21 01:44:21;;;;;;;4.18;3.38;;;;;;;17.93;55.04;100671.69;10257278;28;20051;-60
2021/07/21 01:49:27;;;;;;;4.78;3.63;;;;;;;17.90;55.57;100686.31;10252330;28;20441;-60
2021/07/21 01:54:30;;;;;;;6.68;4.03;;;;;;;17.85;55.41;100680.56;10249057;28;20523;-60
2021/07/21 01:59:33;;;;;;;5.15;3.30;;;;;;;17.83;55.45;100678.03;10249550;28;20046;-60
2021/07/21 02:04:37;;;;;;;7.23;3.57;;;;;;;17.88;55.22;100677.53;10254451;28;20512;-60
2021/07/21 02:09:41;;;;;;;4.72;3.13;;;;;;;17.87;55.31;100677.72;10259301;28;20396;-60
2021/07/21 02:14:44;;;;;;;4.63;3.13;;;;;;;17.82;55.00;100667.41;10255032;28;20054;-60
2021/07/21 02:19:48;;;;;;;5.15;3.35;;;;;;;17.83;55.26;100682.53;10257929;28;20422;-60
2021/07/21 02:24:51;;;;;;;5.25;3.33;;;;;;;17.77;55.16;100675.94;10266573;22;20058;-62
2021/07/21 02:29:53;;;;;;;5.20;3.47;;;;;;;17.72;55.37;100669.38;10278644;28;20046;-61
2021/07/21 02:34:55;;;;;;;3.83;3.20;;;;;;;17.74;55.69;100675.44;10287516;28;20055;-61
2021/07/21 02:39:56;;;;;;;4.18;2.90;;;;;;;17.70;55.42;100692.91;10301037;28;20066;-61
2021/07/21 02:44:58;;;;;;;6.68;3.38;;;;;;;17.63;55.81;100695.41;10293593;28;20054;-64
2021/07/21 02:50:00;;;;;;;6.20;4.47;;;;;;;17.56;55.78;100687.09;10291988;28;20050;-63
2021/07/21 02:55:05;;;;;;;6.68;4.30;;;;;;;17.54;55.87;100681.03;10287791;28;20062;-63
2021/07/21 03:00:09;;;;;;;5.60;3.78;;;;;;;17.47;56.21;100685.38;10285843;28;20050;-61
2021/07/21 03:05:13;;;;;;;3.67;2.97;;;;;;;17.46;56.08;100689.91;10272349;28;20077;-61
2021/07/21 03:10:16;;;;;;;3.85;3.17;;;;;;;17.38;56.38;100680.94;10294044;28;20077;-60
2021/07/21 03:15:18;;;;;;;4.25;3.08;;;;;;;17.41;56.22;100683.31;10299975;28;20344;-61
2021/07/21 03:20:21;;;;;;;5.55;3.28;;;;;;;17.40;56.50;100679.78;10303434;28;20042;-61
2021/07/21 03:25:25;;;;;;;4.70;3.22;;;;;;;17.38;56.39;100702.47;10289599;28;20120;-60
2021/07/21 03:30:29;;;;;;;4.15;3.30;;;;;;;17.39;56.14;100701.47;10291040;28;20613;-60
2021/07/21 03:35:33;;;;;;;4.13;3.50;;;;;;;17.37;56.31;100712.38;10290645;28;20042;-60
2021/07/21 03:40:36;;;;;;;4.40;3.47;;;;;;;17.33;56.34;100715.56;10285554;28;20870;-59
2021/07/21 03:45:39;;;;;;;4.50;3.22;;;;;;;17.27;56.21;100717.00;10295298;28;20057;-61
2021/07/21 03:50:41;;;;;;;3.92;3.33;;;;;;;17.24;56.66;100712.78;10286324;28;20404;-61
2021/07/21 03:55:43;;;;;;;4.90;3.35;;;;;;;17.21;56.47;100713.09;10284961;28;20054;-60
2021/07/21 04:00:46;;;;;;;3.97;3.58;;;;;;;17.22;56.85;100706.72;10270516;28;20281;-62
2021/07/21 04:05:50;;;;;;;8.00;3.88;;;;;;;17.27;57.17;100711.63;10275479;28;20677;-60
2021/07/21 04:10:53;;;;;;;4.10;3.22;;;;;;;17.36;56.74;100720.63;10282031;28;20075;-61
2021/07/21 04:15:55;;;;;;;3.90;3.25;;;;;;;17.34;56.55;100714.53;10293677;28;20058;-61
2021/07/21 04:20:59;;;;;;;4.00;3.55;;;;;;;17.33;56.91;100720.94;10287556;28;20061;-61
2021/07/21 04:26:01;;;;;;;;;;;;;;;17.30;57.09;100722.09;10291726;28;20494;-61
2021/07/21 04:31:02;;;;;;;5.70;3.53;;;;;;;17.26;56.93;100726.94;10287334;28;19922;-61
2021/07/21 04:36:04;;;;;;;7.35;4.88;;;;;;;17.26;57.02;100723.38;10295539;28;20515;-61
2021/07/21 04:41:09;;;;;;;8.25;3.42;;;;;;;17.25;57.23;100725.25;10284078;28;20061;-61
2021/07/21 04:46:13;;;;;;;4.28;3.60;;;;;;;17.31;57.21;100735.38;10299512;28;20050;-62
2021/07/21 04:51:17;;;;;;;5.68;3.58;;;;;;;17.35;57.41;100740.44;10293693;28;20860;-62
2021/07/21 04:56:18;;;;;;;7.57;3.63;;;;;;;17.40;57.45;100738.13;10286817;28;20280;-62
2021/07/21 05:01:20;;;;;;;4.85;3.60;;;;;;;17.49;57.15;100751.50;10280804;28;20046;-62
2021/07/21 05:06:22;;;;;;;4.32;3.08;;;;;;;17.53;57.14;100749.31;10299535;28;20143;-62
2021/07/21 05:11:24;;;;;;;4.72;3.33;;;;;;;17.52;57.35;100768.31;10288670;28;20496;-62
2021/07/21 05:16:26;;;;;;;4.32;3.88;;;;;;;17.57;57.31;100766.84;10294813;28;20045;-62
2021/07/21 05:21:30;;;;;;;7.10;3.90;;;;;;;17.66;57.37;100771.28;10289950;28;20411;-62
2021/07/21 05:26:32;;;;;;;4.57;3.47;;;;;;;17.72;57.28;100774.38;10298110;28;20077;-62
2021/07/21 05:31:34;;;;;;;5.78;4.07;;;;;;;17.70;57.20;100776.34;10300340;28;20050;-62
2021/07/21 05:36:37;;;;;;;4.18;3.60;;;;;;;17.79;56.83;100775.41;10295838;28;20650;-62
2021/07/21 05:41:41;;;;;;;5.05;3.83;;;;;;;17.88;56.92;100784.38;10291926;28;20042;-61
2021/07/21 05:46:43;;;;;;;5.28;4.10;;;;;;;17.90;56.94;100787.81;10290462;28;20068;-62
2021/07/21 05:51:48;;;;;;;5.40;3.67;;;;;;;18.03;57.61;100793.63;10294337;28;20150;-62
2021/07/21 05:56:50;;;;;;;4.22;3.80;;;;;;;18.29;57.82;100781.97;10294258;28;20051;-66
2021/07/21 06:01:51;;;;;;;8.23;4.65;;;;;;;18.45;56.99;100787.44;10283073;28;20104;-65
2021/07/21 06:06:53;;;;;;;5.63;3.75;;;;;;;18.58;56.12;100797.75;10285542;28;20052;-61
2021/07/21 06:11:55;;;;;;;7.50;4.15;;;;;;;18.69;55.98;100800.16;10296394;28;20113;-61
2021/07/21 06:16:57;;;;;;;4.85;3.53;;;;;;;18.80;55.59;100806.28;10296871;28;20054;-60
2021/07/21 06:22:03;;;;;;;8.25;3.72;;;;;;;18.91;56.41;100803.28;10294211;28;20054;-60
2021/07/21 06:27:05;;;;;;;4.40;3.50;;;;;;;19.02;55.51;100805.69;10283618;28;20491;-60
2021/07/21 06:32:08;;;;;;;5.50;3.63;;;;;;;19.01;56.03;100820.19;10300883;28;20050;-60
2021/07/21 06:37:10;;;;;;;5.85;3.17;;;;;;;19.18;54.51;100814.81;10297958;28;20128;-60
2021/07/21 06:42:11;;;;;;;4.03;3.28;;;;;;;19.18;53.94;100820.22;10293694;28;20523;-61
2021/07/21 06:47:13;;;;;;;4.80;3.17;;;;;;;19.31;53.70;100825.97;10303093;28;20129;-61
2021/07/21 06:52:16;;;;;;;4.38;3.08;;;;;;;19.35;53.71;100827.34;10297130;28;20046;-60
2021/07/21 06:57:18;;;;;;;3.13;2.70;;;;;;;19.52;52.44;100832.75;10293297;28;20109;-61
2021/07/21 07:02:20;;;;;;;4.40;3.05;;;;;;;19.52;52.57;100838.16;10286746;28;20057;-62
2021/07/21 07:07:26;;;;;;;5.18;3.38;;;;;;;19.53;53.00;100850.59;10293792;28;20125;-60
2021/07/21 07:12:27;;;;;;;5.22;3.42;;;;;;;19.70;51.63;100846.06;10287499;28;20504;-61
2021/07/21 07:17:29;;;;;;;6.43;4.00;;;;;;;19.93;51.29;100840.84;10286141;28;20058;-61
2021/07/21 07:22:31;;;;;;;4.55;3.45;;;;;;;19.93;51.00;100846.25;10282352;28;20046;-61
2021/07/21 07:27:32;;;;;;;3.67;3.38;;;;;;;20.09;51.32;100850.81;10289308;28;20550;-61
2021/07/21 07:32:34;;;;;;;3.15;2.83;;;;;;;20.40;50.35;100845.50;10277600;28;20054;-61
2021/07/21 07:37:36;;;;;;;4.88;2.78;;;;;;;20.73;49.80;100845.41;10262201;28;20413;-61
2021/07/21 07:42:37;;;;;;;4.28;2.85;;;;;;;20.83;49.12;100842.47;10235752;28;20055;-61
2021/07/21 07:47:39;;;;;;;5.07;2.92;;;;;;;20.97;49.47;100843.56;10247626;28;20051;-61
2021/07/21 07:52:41;;;;;;;4.95;3.30;;;;;;;21.30;48.79;100830.72;10238500;28;20047;-62
2021/07/21 07:57:42;;;;;;;4.15;3.10;;;;;;;21.33;49.08;100821.34;10249019;28;20051;-61
2021/07/21 08:02:44;;;;;;;4.28;2.80;;;;;;;21.57;47.86;100820.34;10242595;28;20042;-61
2021/07/21 08:07:46;;;;;;;3.58;2.88;;;;;;;21.68;46.73;100809.09;10256388;28;20051;-60
2021/07/21 08:12:47;;;;;;;4.63;2.67;;;;;;;21.96;47.27;100815.78;10280686;28;20685;-60
2021/07/21 08:17:53;;;;;;;3.88;2.78;;;;;;;22.27;44.73;100817.50;10288032;28;20050;-62
2021/07/21 08:22:55;;;;;;;3.47;2.30;;;;;;;22.33;44.86;100811.34;10284204;28;20061;-61
2021/07/21 08:27:57;;;;;;;3.65;2.40;;;;;;;22.50;44.63;100812.81;10327128;23;20061;-58
2021/07/21 08:33:00;;;;;;;3.42;2.72;;;;;;;22.69;43.67;100816.00;10313579;28;20060;-58
2021/07/21 08:38:02;;;;;;;3.72;2.47;;;;;;;22.94;43.56;100809.22;10313088;28;20041;-58
2021/07/21 08:43:06;;;;;;;5.45;3.28;;;;;;;23.07;42.50;100815.81;10315913;28;20149;-57
2021/07/21 08:48:11;;;;;;;3.95;3.10;;;;;;;23.21;42.15;100801.38;10284670;28;20053;-56
2021/07/21 08:53:14;;;;;;;4.03;2.25;;;;;;;23.66;41.16;100812.03;10304912;28;20050;-59
2021/07/21 08:58:19;;;;;;;4.03;2.45;;;;;;;23.83;39.82;100807.13;10314112;28;20046;-57
2021/07/21 09:03:21;;;;;;;4.40;2.45;;;;;;;23.99;39.47;100812.31;10324071;28;20784;-58
2021/07/21 09:08:23;;;;;;;2.60;2.40;;;;;;;24.23;38.94;100815.59;10316188;28;20061;-56
2021/07/21 09:13:26;;;;;;;3.08;2.38;;;;;;;24.68;38.34;100818.78;10317548;28;20099;-56
2021/07/21 09:18:29;;;;;;;8.40;3.90;;;;;;;24.74;38.50;100814.44;10317501;28;20058;-58
2021/07/21 09:23:41;;;;;;;;;;;;;;;25.06;38.13;100807.38;10317235;28;20141;-61
2021/07/21 09:28:43;;;;;;;9.18;3.75;;;;;;;25.27;37.93;100808.28;10320566;28;19922;-57
2021/07/21 09:33:45;;;;;;;3.83;2.42;;;;;;;25.74;36.27;100803.69;10318295;28;20058;-57
2021/07/21 09:38:48;;;;;;;3.50;2.25;;;;;;;25.87;35.91;100799.31;10315969;28;20042;-57
2021/07/21 09:43:58;;;;;;;5.18;3.20;;;;;;;25.96;35.54;100805.34;10319259;28;20046;-56
2021/07/21 09:49:00;;;;;;;3.42;2.08;;;;;;;26.22;35.85;100801.78;10296330;28;20054;-57
2021/07/21 09:54:15;;;;;;;4.10;2.60;;;;;;;26.49;35.19;100808.00;10319582;28;20499;-58
2021/07/21 09:59:29;;;;;;;9.10;6.57;;;;;;;26.65;35.13;100809.41;10296094;28;20046;-58
2021/07/21 10:04:36;;;;;;;4.47;2.15;;;;;;;26.88;34.12;100802.63;10303360;28;20566;-56
2021/07/21 10:09:38;;;;;;;2.95;1.98;;;;;;;26.53;33.89;100794.75;10298306;28;20125;-57
2021/07/21 10:14:56;;;;;;;5.03;2.50;;;;;;;27.23;33.31;100799.44;10302601;28;20042;-56
2021/07/21 10:19:57;;;;;;;4.00;1.80;;;;;;;27.14;32.60;100791.53;10301186;28;20050;-57
2021/07/21 10:24:59;;;;;;;4.88;1.83;;;;;;;27.59;32.83;100790.56;10287679;28;20054;-57
2021/07/21 10:30:03;;;;;;;3.95;2.08;;;;;;;27.91;30.62;100785.03;10302639;28;20138;-57
2021/07/21 10:35:07;;;;;;;5.03;2.53;;;;;;;27.88;30.35;100785.50;10307557;28;20791;-56
2021/07/21 10:40:09;;;;;;;3.80;2.47;;;;;;;28.48;29.87;100789.47;10299408;28;20055;-57
2021/07/21 10:45:22;;;;;;;4.55;2.42;;;;;;;28.97;28.95;100792.25;10285784;28;20068;-57
2021/07/21 10:50:27;;;;;;;3.95;1.88;;;;;;;29.46;27.42;100790.25;10316996;28;20057;-56
2021/07/21 10:55:34;;;;;;;5.90;1.90;;;;;;;29.59;27.44;100784.56;10315585;28;20046;-57
2021/07/21 11:00:54;;;;;;;2.45;1.77;;;;;;;29.60;27.23;100769.75;10308381;28;20048;-57
2021/07/21 11:05:56;;;;;;;5.88;2.65;;;;;;;29.92;27.12;100783.16;10310528;28;20057;-59
2021/07/21 11:11:18;;;;;;;2.20;1.60;;;;;;;29.90;26.10;100771.56;10301039;28;20051;-60
2021/07/21 11:16:38;;;;;;;3.03;2.60;;;;;;;30.01;26.55;100771.81;10318474;28;20054;-59
2021/07/21 11:21:56;;;;;;;2.33;1.95;;;;;;;29.66;27.15;100764.41;10310832;28;20117;-59
2021/07/21 11:26:58;;;;;;;2.83;2.20;;;;;;;29.42;26.86;100762.47;10310949;28;20631;-59
2021/07/21 11:32:01;;;;;;;2.90;2.00;;;;;;;29.67;27.25;100764.16;10300986;28;20050;-58
2021/07/21 11:37:08;;;;;;;2.95;1.52;;;;;;;29.44;27.62;100754.03;10312819;28;20237;-57
2021/07/21 11:42:40;;;;;;;3.03;1.75;;;;;;;29.27;28.03;100757.47;10299617;28;20051;-56
2021/07/21 11:47:45;;;;;;;2.47;1.88;;;;;;;29.02;29.37;100748.53;10284325;28;20065;-58
2021/07/21 11:53:02;;;;;;;3.15;2.05;;;;;;;29.60;27.42;100742.31;10289457;28;20062;-57
2021/07/21 11:58:11;;;;;;;4.65;2.20;;;;;;;29.99;27.76;100732.81;10306354;28;20074;-57
2021/07/21 12:03:13;;;;;;;3.97;2.72;;;;;;;30.21;27.11;100735.75;10315992;28;20507;-57
2021/07/21 12:08:18;;;;;;;3.80;2.22;;;;;;;30.23;27.25;100739.91;10316276;28;20140;-56
2021/07/21 12:13:20;;;;;;;3.80;1.98;;;;;;;30.15;26.55;100726.56;10313689;28;20053;-57
2021/07/21 12:18:24;;;;;;;3.00;2.05;;;;;;;29.57;27.71;100734.56;10316768;28;20105;-57
2021/07/21 12:23:26;;;;;;;3.38;1.95;;;;;;;29.77;27.60;100727.88;10328592;28;20050;-59
2021/07/21 12:28:28;;;;;;;4.72;2.30;;;;;;;29.77;27.49;100730.63;10321368;28;20066;-58
2021/07/21 12:33:29;;;;;;;2.63;1.90;;;;;;;29.67;27.29;100719.47;10329886;28;20438;-57
2021/07/21 12:38:36;;;;;;;3.15;1.92;;;;;;;29.66;27.40;100724.09;10325312;28;20419;-57
2021/07/21 12:43:38;;;;;;;3.42;2.45;;;;;;;29.79;27.55;100712.03;10326063;28;20053;-56
2021/07/21 12:48:40;;;;;;;2.88;2.25;;;;;;;29.73;27.56;100722.06;10313146;28;20046;-56
2021/07/21 12:53:45;;;;;;;4.50;2.30;;;;;;;29.61;27.86;100716.56;10311084;28;20702;-59
2021/07/21 12:59:12;;;;;;;2.72;2.10;;;;;;;29.69;27.90;100714.56;10312468;28;20049;-57
2021/07/21 13:04:14;;;;;;;3.83;2.25;;;;;;;29.64;27.55;100708.97;10298223;28;20054;-57
2021/07/21 13:09:17;;;;;;;2.22;1.75;;;;;;;29.54;27.66;100704.88;10311561;28;20053;-56
2021/07/21 13:14:18;;;;;;;3.58;2.20;;;;;;;29.65;27.74;100689.53;10293394;28;20049;-59
2021/07/21 13:19:29;;;;;;;2.40;2.20;;;;;;;29.50;28.29;100700.13;10311443;28;20050;-57
2021/07/21 13:24:39;;;;;;;2.58;2.22;;;;;;;29.46;27.81;100708.00;10321947;28;20042;-55
2021/07/21 13:29:42;;;;;;;2.47;2.13;;;;;;;29.40;28.09;100708.97;10320640;28;20046;-55
2021/07/21 13:34:44;;;;;;;34.03;30.55;;;;;;;28.81;29.10;100697.84;10296882;28;20054;-58
2021/07/21 13:39:46;;;;;;;5.28;2.63;;;;;;;28.74;29.29;100690.56;10309263;28;20073;-55
2021/07/21 13:45:08;;;;;;;3.53;2.55;;;;;;;28.54;29.80;100700.97;10296852;28;20059;-56
2021/07/21 13:50:16;;;;;;;4.57;2.13;;;;;;;28.45;28.89;100692.25;10311534;28;20050;-55
2021/07/21 13:55:18;;;;;;;2.30;2.05;;;;;;;28.45;29.43;100691.38;10320370;28;20042;-55
2021/07/21 14:00:21;;;;;;;4.20;2.30;;;;;;;28.35;29.63;100689.22;10325554;28;20442;-57
2021/07/21 14:05:22;;;;;;;2.65;2.25;;;;;;;28.36;30.33;100693.63;10322383;28;20115;-59
2021/07/21 14:10:24;;;;;;;3.40;2.87;;;;;;;28.23;30.31;100693.81;10322327;28;20050;-57
2021/07/21 14:15:25;;;;;;;3.92;2.15;;;;;;;28.17;30.48;100701.03;10327171;28;20054;-55
2021/07/21 14:20:27;;;;;;;3.33;3.00;;;;;;;27.80;30.54;100685.44;10318841;28;20556;-57
2021/07/21 14:25:28;;;;;;;3.90;2.72;;;;;;;27.60;31.04;100684.81;10305979;28;20053;-57
2021/07/21 14:30:40;;;;;;;2.78;2.38;;;;;;;27.70;30.93;100674.19;10315988;22;20125;-61
2021/07/21 14:35:42;;;;;;;3.70;2.90;;;;;;;27.56;31.31;100672.63;10290810;28;20069;-62
2021/07/21 14:40:44;;;;;;;3.55;3.25;;;;;;;27.59;31.30;100674.91;10284174;28;20133;-61
2021/07/21 14:45:46;;;;;;;4.37;3.00;;;;;;;27.49;31.65;100657.13;10292103;28;20057;-62
2021/07/21 14:50:48;;;;;;;3.78;2.92;;;;;;;27.47;32.07;100664.75;10282706;28;20059;-63
2021/07/21 14:55:49;;;;;;;4.53;3.22;;;;;;;27.43;32.25;100662.66;10255550;28;20078;-62
2021/07/21 15:00:52;;;;;;;3.67;2.83;;;;;;;27.39;31.75;100666.94;10254135;28;20053;-62
2021/07/21 15:05:55;;;;;;;3.55;3.00;;;;;;;27.23;32.72;100662.81;10291349;28;20066;-61
2021/07/21 15:10:56;;;;;;;6.43;3.58;;;;;;;27.26;32.47;100656.91;10244974;28;20050;-61
2021/07/21 15:15:58;;;;;;;4.57;2.93;;;;;;;27.25;32.81;100660.69;10271858;28;20404;-60
2021/07/21 15:21:02;;;;;;;4.38;3.95;;;;;;;27.05;32.99;100655.41;10278474;28;20054;-61
2021/07/21 15:26:03;;;;;;;3.72;3.42;;;;;;;26.83;32.86;100653.06;10264051;28;20065;-61
2021/07/21 15:31:05;;;;;;;4.38;4.07;;;;;;;26.86;32.80;100663.56;10278582;28;20051;-62
2021/07/21 15:36:07;;;;;;;4.43;3.63;;;;;;;26.66;32.88;100658.19;10260046;28;20066;-62
2021/07/21 15:41:09;;;;;;;5.33;3.50;;;;;;;26.77;33.10;100654.78;10251904;28;20054;-61
2021/07/21 15:46:10;;;;;;;6.20;4.47;;;;;;;26.79;33.11;100655.41;10271706;28;20051;-61
2021/07/21 15:51:12;;;;;;;12.45;5.68;;;;;;;26.78;33.06;100658.34;10282398;28;20074;-62
2021/07/21 15:56:14;;;;;;;5.20;4.23;;;;;;;26.75;33.27;100645.13;10261979;28;20097;-67
2021/07/21 16:01:15;;;;;;;4.93;3.20;;;;;;;26.51;33.10;100649.47;10250687;28;20058;-61
2021/07/21 16:06:17;;;;;;;4.40;3.73;;;;;;;26.48;34.03;100649.91;10260192;28;20139;-61
2021/07/21 16:11:19;;;;;;;6.05;4.00;;;;;;;26.25;34.49;100651.28;10260023;28;20150;-61
2021/07/21 16:16:20;;;;;;;6.05;3.50;;;;;;;26.41;33.77;100645.34;10279157;28;20667;-61
2021/07/21 16:21:22;;;;;;;3.42;3.13;;;;;;;26.49;33.66;100635.22;10281476;28;20120;-61
2021/07/21 16:26:25;;;;;;;4.55;3.15;;;;;;;26.46;33.86;100642.78;10272453;28;20065;-61
2021/07/21 16:31:26;;;;;;;4.32;3.83;;;;;;;26.50;33.88;100636.88;10276632;28;20058;-61
2021/07/21 16:36:28;;;;;;;5.05;3.85;;;;;;;26.45;33.87;100630.19;10272645;28;20054;-61
2021/07/21 16:41:29;;;;;;;5.85;4.72;;;;;;;26.41;34.54;100639.88;10263342;28;20258;-61
2021/07/21 16:46:32;;;;;;;6.38;5.32;;;;;;;26.40;34.75;100638.19;10289257;28;20050;-61
2021/07/21 16:51:34;;;;;;;;;;;;;;;26.41;35.04;100645.34;10296641;28;21479;-61
2021/07/21 16:56:35;;;;;;;3.92;3.63;;;;;;;26.29;34.79;100641.63;10263184;28;19922;-61
2021/07/21 17:01:37;;;;;;;5.03;4.07;;;;;;;26.27;35.46;100646.44;10280235;28;20054;-61
2021/07/21 17:06:39;;;;;;;5.63;4.07;;;;;;;26.27;35.67;100649.19;10292671;28;20050;-61
2021/07/21 17:11:41;;;;;;;4.32;3.92;;;;;;;26.17;35.13;100641.47;10289830;28;20046;-62
2021/07/21 17:16:42;;;;;;;5.20;3.83;;;;;;;26.14;35.77;100643.78;10291922;28;20047;-62
2021/07/21 17:21:44;;;;;;;6.45;3.60;;;;;;;26.09;35.43;100641.72;10277529;28;20510;-63
2021/07/21 17:26:46;;;;;;;4.82;3.75;;;;;;;25.94;35.37;100644.69;10288315;28;20054;-62
2021/07/21 17:31:49;;;;;;;6.07;4.82;;;;;;;25.90;35.64;100657.09;10280248;28;20050;-62
2021/07/21 17:36:50;;;;;;;6.18;4.43;;;;;;;25.90;35.95;100648.91;10279268;28;20054;-62
2021/07/21 17:41:52;;;;;;;5.25;4.35;;;;;;;25.74;36.07;100651.03;10286766;28;20061;-62
2021/07/21 17:46:54;;;;;;;4.63;3.65;;;;;;;25.64;36.53;100645.22;10269959;28;20457;-62
2021/07/21 17:51:55;;;;;;;4.07;3.67;;;;;;;25.58;36.57;100654.22;10278005;28;20043;-62
2021/07/21 17:56:57;;;;;;;6.47;4.00;;;;;;;25.25;37.18;100655.06;10273014;28;20058;-62
2021/07/21 18:01:59;;;;;;;4.40;3.50;;;;;;;25.10;36.99;100652.59;10280387;28;20131;-62
2021/07/21 18:07:01;;;;;;;4.53;3.58;;;;;;;25.09;37.69;100655.53;10260842;28;20058;-62
2021/07/21 18:12:03;;;;;;;4.70;3.97;;;;;;;25.05;37.61;100660.53;10274909;28;20054;-61
2021/07/21 18:17:05;;;;;;;4.60;3.85;;;;;;;24.96;37.87;100662.63;10243785;28;20059;-61
2021/07/21 18:22:07;;;;;;;7.70;3.80;;;;;;;24.82;37.95;100659.06;10263067;28;20057;-61
2021/07/21 18:27:09;;;;;;;5.35;3.97;;;;;;;24.78;38.23;100662.41;10253386;28;20129;-61
2021/07/21 18:32:10;;;;;;;5.38;4.50;;;;;;;24.66;38.52;100652.13;10256018;28;20461;-61
2021/07/21 18:37:13;;;;;;;8.23;4.00;;;;;;;24.59;38.61;100656.72;10272239;28;20049;-62
2021/07/21 18:42:14;;;;;;;5.05;3.72;;;;;;;24.48;38.83;100651.84;10266074;28;20640;-61
2021/07/21 18:47:18;;;;;;;4.43;3.70;;;;;;;24.37;38.88;100663.34;10274293;28;20057;-62
2021/07/21 18:52:20;;;;;;;3.15;2.80;;;;;;;24.25;39.38;100663.91;10262098;28;20042;-62
2021/07/21 18:57:22;;;;;;;4.70;3.45;;;;;;;24.15;39.82;100668.91;10254757;28;20444;-62
2021/07/21 19:02:23;;;;;;;7.88;4.20;;;;;;;24.05;40.04;100666.56;10287331;28;20054;-61
2021/07/21 19:07:26;;;;;;;4.32;3.28;;;;;;;23.95;40.02;100671.53;10265891;28;20042;-61
2021/07/21 19:12:28;;;;;;;6.82;4.20;;;;;;;23.85;40.74;100681.91;10272403;28;20050;-60
2021/07/21 19:17:30;;;;;;;5.00;3.92;;;;;;;23.78;40.79;100684.56;10263422;28;20431;-61
2021/07/21 19:22:31;;;;;;;4.63;3.80;;;;;;;23.64;41.33;100692.66;10263301;28;20050;-61
2021/07/21 19:27:33;;;;;;;5.63;3.70;;;;;;;23.60;41.76;100704.09;10265355;28;20051;-61
2021/07/21 19:32:37;;;;;;;5.63;3.90;;;;;;;23.53;41.77;100705.97;10272245;28;20047;-61
2021/07/21 19:37:40;;;;;;;4.07;3.58;;;;;;;23.40;41.47;100696.66;10266796;28;20547;-60
2021/07/21 19:42:41;;;;;;;4.97;3.20;;;;;;;23.32;42.36;100701.41;10268921;28;20504;-61
2021/07/21 19:47:43;;;;;;;7.82;4.80;;;;;;;23.17;42.48;100705.03;10246323;28;20058;-61
2021/07/21 19:52:45;;;;;;;6.13;4.13;;;;;;;23.07;42.37;100708.03;10270917;28;20061;-61
2021/07/21 19:57:50;;;;;;;5.38;3.38;;;;;;;23.02;43.23;100712.41;10287605;28;20046;-60
2021/07/21 20:02:51;;;;;;;6.43;4.53;;;;;;;22.96;43.51;100708.56;10266026;28;20481;-61
2021/07/21 20:07:54;;;;;;;7.78;4.07;;;;;;;22.95;43.37;100712.31;10248927;28;20057;-61
2021/07/21 20:12:56;;;;;;;7.18;4.03;;;;;;;22.87;43.38;100715.19;10244680;28;20062;-67
2021/07/21 20:17:57;;;;;;;5.45;3.25;;;;;;;22.77;43.92;100715.47;10263633;28;20055;-63
2021/07/21 20:22:59;;;;;;;5.18;3.83;;;;;;;22.77;44.09;100718.19;10271017;28;20161;-61
2021/07/21 20:28:00;;;;;;;6.07;3.30;;;;;;;22.67;44.41;100717.66;10284608;28;20058;-61
2021/07/21 20:33:03;;;;;;;4.47;3.45;;;;;;;22.60;44.42;100721.13;10252896;28;20058;-62
2021/07/21 20:38:05;;;;;;;5.00;3.28;;;;;;;22.54;44.28;100711.06;10250617;28;20495;-64
2021/07/21 20:43:07;;;;;;;6.40;3.60;;;;;;;22.54;44.78;100712.94;10279126;28;20057;-61
2021/07/21 20:48:09;;;;;;;3.63;3.03;;;;;;;22.51;44.70;100711.44;10279244;28;20043;-60
2021/07/21 20:53:10;;;;;;;5.72;4.32;;;;;;;22.47;44.48;100720.97;10278313;28;20054;-61
2021/07/21 20:58:12;;;;;;;8.43;3.85;;;;;;;22.17;45.93;100712.91;10288989;28;20062;-60
2021/07/21 21:03:14;;;;;;;6.63;3.78;;;;;;;22.24;45.49;100721.94;10265930;28;20452;-60
2021/07/21 21:08:15;;;;;;;4.47;3.60;;;;;;;22.10;45.60;100725.50;10282172;28;21657;-61
2021/07/21 21:13:17;;;;;;;5.03;3.72;;;;;;;22.16;45.79;100724.75;10279502;28;20054;-60
2021/07/21 21:18:19;;;;;;;4.20;3.58;;;;;;;22.19;45.63;100723.53;10296661;28;20058;-60
2021/07/21 21:23:21;;;;;;;8.53;3.60;;;;;;;22.17;45.74;100725.59;10296878;28;20054;-60
2021/07/21 21:28:23;;;;;;;5.10;3.95;;;;;;;22.04;46.25;100716.25;10286912;28;20047;-62
2021/07/21 21:33:25;;;;;;;6.07;3.97;;;;;;;22.02;46.68;100728.31;10288875;28;20054;-61
2021/07/21 21:38:27;;;;;;;5.85;4.43;;;;;;;21.96;47.10;100729.88;10273445;28;20046;-62
2021/07/21 21:43:28;;;;;;;5.15;3.75;;;;;;;21.94;47.17;100725.69;10266958;28;20054;-60
2021/07/21 21:48:30;;;;;;;4.38;3.40;;;;;;;21.89;47.43;100729.81;10289505;28;20061;-61
2021/07/21 21:53:32;;;;;;;6.00;3.78;;;;;;;21.82;47.82;100734.28;10279361;28;20043;-60
2021/07/21 21:58:34;;;;;;;6.15;4.30;;;;;;;21.76;47.85;100732.31;10253408;28;20062;-60
2021/07/21 22:03:35;;;;;;;8.13;4.03;;;;;;;21.70;48.18;100736.59;10245904;28;20058;-61
2021/07/21 22:08:38;;;;;;;5.10;4.43;;;;;;;21.64;48.46;100728.38;10262959;28;20046;-61
2021/07/21 22:13:39;;;;;;;6.47;4.35;;;;;;;21.61;48.27;100731.47;10260427;28;20055;-61
2021/07/21 22:18:42;;;;;;;6.03;4.45;;;;;;;21.54;49.03;100743.03;10284943;28;20050;-61
2021/07/21 22:23:54;;;;;;;4.25;3.72;;;;;;;21.46;49.25;100729.53;10261750;28;20058;-61
2021/07/21 22:28:59;;;;;;;4.03;3.60;;;;;;;21.37;49.69;100728.75;10255100;28;20058;-61
2021/07/21 22:34:02;;;;;;;7.25;4.32;;;;;;;21.29;50.02;100736.13;10282637;28;20400;-58
2021/07/21 22:39:10;;;;;;;4.33;3.43;;;;;;;21.34;53.66;100742.66;10248498;28;20081;-61
2021/07/21 22:44:13;;;;;;;5.00;3.30;;;;;;;21.40;52.81;100746.50;10256155;28;20043;-60
2021/07/21 22:49:15;;;;;;;4.88;3.53;;;;;;;21.37;51.35;100744.16;10283447;28;20085;-61
2021/07/21 22:54:22;;;;;;;7.28;4.20;;;;;;;21.35;51.24;100748.94;10282583;28;20061;-61
2021/07/21 22:59:46;;;;;;;6.72;4.43;;;;;;;21.17;51.81;100747.38;10268416;28;20488;-60
2021/07/21 23:05:25;;;;;;;5.60;3.95;;;;;;;21.23;51.66;100744.94;10267021;28;20070;-62
2021/07/21 23:11:05;;;;;;;6.05;4.35;;;;;;;21.23;51.53;100744.94;10272161;28;20076;-62
2021/07/21 23:16:06;;;;;;;8.10;4.32;;;;;;;21.15;51.73;100743.16;10290941;28;20053;-60
2021/07/21 23:21:12;;;;;;;4.57;3.17;;;;;;;21.07;52.14;100735.13;10287492;28;20133;-60
2021/07/21 23:26:16;;;;;;;5.85;4.18;;;;;;;20.99;52.54;100736.03;10256330;28;20055;-60